UAL3771 KSFO-KLAS
Flight info
| Callsign | UAL3771 |
|---|---|
| Flight time | 1h 6m |
| Altitude | 39000 |
| Route | WESLA5 KAYEX LOSHN PMD HELDE MISEN RNDRZ4 |
| Aircraft | B772/H-SDE2E3FGHIJ5LORVWXY/LB1D1 |
Departure
| Time | 2026-05-03 20:34 |
|---|---|
| Airport | San Francisco International Airport (KSFO) |
Arrival
| Time | 2026-05-03 21:40 |
|---|---|
| Airport | Harry Reid International Airport (KLAS) |
| Time | Latitude | Longitude | Altitude | Speed | Heading |
|---|---|---|---|---|---|
| 2026-05-03 20:15 | 37.62513 | -122.37477 | 26 ft | 0 kts | 117° |
| 2026-05-03 20:24 | 37.62513 | -122.37478 | 26 ft | 1 kts | 117° |
| 2026-05-03 20:25 | 37.62520 | -122.37493 | 26 ft | 3 kts | 117° |
| 2026-05-03 20:25 | 37.62529 | -122.37516 | 26 ft | 3 kts | 117° |
| 2026-05-03 20:25 | 37.62538 | -122.37538 | 24 ft | 3 kts | 124° |
| 2026-05-03 20:25 | 37.62547 | -122.37551 | 25 ft | 3 kts | 186° |
| 2026-05-03 20:26 | 37.62557 | -122.37547 | 25 ft | 2 kts | 208° |
| 2026-05-03 20:26 | 37.62573 | -122.37537 | 25 ft | 3 kts | 208° |
| 2026-05-03 20:26 | 37.62585 | -122.37529 | 25 ft | 0 kts | 208° |
| 2026-05-03 20:28 | 37.62554 | -122.37550 | 25 ft | 9 kts | 208° |
| 2026-05-03 20:29 | 37.62486 | -122.37595 | 26 ft | 14 kts | 208° |
| 2026-05-03 20:29 | 37.62400 | -122.37653 | 26 ft | 12 kts | 208° |
| 2026-05-03 20:29 | 37.62370 | -122.37670 | 26 ft | 10 kts | 199° |
| 2026-05-03 20:29 | 37.62300 | -122.37603 | 26 ft | 19 kts | 117° |
| 2026-05-03 20:30 | 37.62229 | -122.37434 | 26 ft | 24 kts | 118° |
| 2026-05-03 20:30 | 37.62153 | -122.37251 | 25 ft | 23 kts | 117° |
| 2026-05-03 20:30 | 37.62083 | -122.37084 | 26 ft | 21 kts | 118° |
| 2026-05-03 20:30 | 37.62018 | -122.36928 | 26 ft | 19 kts | 118° |
| 2026-05-03 20:31 | 37.61958 | -122.36785 | 26 ft | 18 kts | 118° |
| 2026-05-03 20:31 | 37.61903 | -122.36655 | 26 ft | 16 kts | 118° |
| 2026-05-03 20:31 | 37.61848 | -122.36523 | 26 ft | 21 kts | 118° |
| 2026-05-03 20:31 | 37.61771 | -122.36339 | 26 ft | 21 kts | 118° |
| 2026-05-03 20:32 | 37.61689 | -122.36146 | 26 ft | 24 kts | 118° |
| 2026-05-03 20:32 | 37.61614 | -122.35967 | 26 ft | 23 kts | 117° |
| 2026-05-03 20:32 | 37.61545 | -122.35803 | 26 ft | 12 kts | 118° |
| 2026-05-03 20:32 | 37.61498 | -122.35703 | 26 ft | 14 kts | 131° |
| 2026-05-03 20:33 | 37.61398 | -122.35705 | 26 ft | 12 kts | 208° |
| 2026-05-03 20:33 | 37.61378 | -122.35788 | 26 ft | 9 kts | 301° |
| 2026-05-03 20:33 | 37.61436 | -122.35921 | 26 ft | 32 kts | 298° |
| 2026-05-03 20:33 | 37.61657 | -122.36444 | 26 ft | 106 kts | 298° |
| 2026-05-03 20:34 | 37.62117 | -122.37532 | 98 ft | 167 kts | 296° |
| 2026-05-03 20:34 | 37.62701 | -122.38821 | 938 ft | 173 kts | 298° |
| 2026-05-03 20:34 | 37.63272 | -122.40175 | 1859 ft | 176 kts | 297° |
| 2026-05-03 20:34 | 37.63852 | -122.41569 | 2400 ft | 183 kts | 297° |
| 2026-05-03 20:35 | 37.64457 | -122.43010 | 2893 ft | 189 kts | 296° |
| 2026-05-03 20:35 | 37.65080 | -122.44503 | 3423 ft | 195 kts | 297° |
| 2026-05-03 20:35 | 37.65728 | -122.46076 | 3679 ft | 209 kts | 296° |
| 2026-05-03 20:35 | 37.66390 | -122.47720 | 4083 ft | 212 kts | 293° |
| 2026-05-03 20:36 | 37.66740 | -122.49536 | 4375 ft | 216 kts | 265° |
| 2026-05-03 20:36 | 37.66220 | -122.51361 | 4513 ft | 235 kts | 230° |
| 2026-05-03 20:36 | 37.64886 | -122.52483 | 5031 ft | 236 kts | 193° |
| 2026-05-03 20:36 | 37.63220 | -122.52501 | 5416 ft | 246 kts | 167° |
| 2026-05-03 20:37 | 37.61583 | -122.51876 | 5981 ft | 253 kts | 162° |
| 2026-05-03 20:37 | 37.59867 | -122.51249 | 6584 ft | 261 kts | 164° |
| 2026-05-03 20:37 | 37.58137 | -122.50652 | 7268 ft | 264 kts | 165° |
| 2026-05-03 20:37 | 37.56359 | -122.50038 | 8040 ft | 267 kts | 164° |
| 2026-05-03 20:38 | 37.54575 | -122.49417 | 8814 ft | 269 kts | 164° |
| 2026-05-03 20:38 | 37.52763 | -122.48784 | 9611 ft | 271 kts | 164° |
| 2026-05-03 20:38 | 37.50932 | -122.48143 | 10300 ft | 277 kts | 164° |
| 2026-05-03 20:38 | 37.49085 | -122.47236 | 10460 ft | 296 kts | 146° |
| 2026-05-03 20:39 | 37.47575 | -122.45344 | 10636 ft | 318 kts | 130° |
| 2026-05-03 20:39 | 37.46191 | -122.43193 | 11033 ft | 333 kts | 130° |
| 2026-05-03 20:39 | 37.44710 | -122.40888 | 11710 ft | 342 kts | 130° |
| 2026-05-03 20:39 | 37.43200 | -122.38532 | 12529 ft | 347 kts | 130° |
| 2026-05-03 20:40 | 37.41696 | -122.36184 | 13397 ft | 350 kts | 130° |
| 2026-05-03 20:40 | 37.40154 | -122.33779 | 14234 ft | 353 kts | 130° |
| 2026-05-03 20:40 | 37.38600 | -122.31360 | 15076 ft | 356 kts | 130° |
| 2026-05-03 20:40 | 37.37034 | -122.28927 | 15877 ft | 360 kts | 130° |
| 2026-05-03 20:41 | 37.35451 | -122.26473 | 16700 ft | 363 kts | 130° |
| 2026-05-03 20:41 | 37.33850 | -122.23993 | 17523 ft | 366 kts | 130° |
| 2026-05-03 20:41 | 37.32254 | -122.21525 | 18286 ft | 370 kts | 130° |
| 2026-05-03 20:41 | 37.30616 | -122.18992 | 18959 ft | 373 kts | 130° |
| 2026-05-03 20:42 | 37.28965 | -122.16443 | 19669 ft | 377 kts | 130° |
| 2026-05-03 20:42 | 37.27300 | -122.13873 | 20323 ft | 381 kts | 129° |
| 2026-05-03 20:42 | 37.25641 | -122.11313 | 21017 ft | 384 kts | 129° |
| 2026-05-03 20:42 | 37.23949 | -122.08706 | 21713 ft | 387 kts | 129° |
| 2026-05-03 20:43 | 37.22233 | -122.06065 | 22423 ft | 390 kts | 129° |
| 2026-05-03 20:43 | 37.20505 | -122.03407 | 23177 ft | 392 kts | 128° |
| 2026-05-03 20:43 | 37.18796 | -122.00780 | 23812 ft | 395 kts | 128° |
| 2026-05-03 20:43 | 37.17039 | -121.98082 | 24328 ft | 400 kts | 128° |
| 2026-05-03 20:44 | 37.15254 | -121.95342 | 24820 ft | 406 kts | 129° |
| 2026-05-03 20:44 | 37.13460 | -121.92593 | 25213 ft | 414 kts | 129° |
| 2026-05-03 20:44 | 37.11645 | -121.89813 | 25733 ft | 418 kts | 129° |
| 2026-05-03 20:44 | 37.09789 | -121.86974 | 26290 ft | 422 kts | 129° |
| 2026-05-03 20:45 | 37.07920 | -121.84117 | 26821 ft | 426 kts | 129° |
| 2026-05-03 20:45 | 37.06028 | -121.81227 | 27312 ft | 431 kts | 130° |
| 2026-05-03 20:45 | 37.04118 | -121.78313 | 27814 ft | 435 kts | 129° |
| 2026-05-03 20:45 | 37.02203 | -121.75392 | 28319 ft | 439 kts | 130° |
| 2026-05-03 20:46 | 37.00242 | -121.72403 | 28692 ft | 447 kts | 131° |
| 2026-05-03 20:46 | 36.98268 | -121.69399 | 29060 ft | 453 kts | 131° |
| 2026-05-03 20:46 | 36.96251 | -121.66333 | 29469 ft | 458 kts | 131° |
| 2026-05-03 20:46 | 36.94210 | -121.63232 | 29904 ft | 462 kts | 131° |
| 2026-05-03 20:47 | 36.92148 | -121.60102 | 30304 ft | 466 kts | 131° |
| 2026-05-03 20:47 | 36.90107 | -121.57007 | 30624 ft | 470 kts | 131° |
| 2026-05-03 20:47 | 36.88004 | -121.53821 | 30936 ft | 475 kts | 132° |
| 2026-05-03 20:47 | 36.85886 | -121.50617 | 31120 ft | 482 kts | 133° |
| 2026-05-03 20:48 | 36.83727 | -121.47356 | 31281 ft | 489 kts | 133° |
| 2026-05-03 20:48 | 36.81568 | -121.44094 | 31597 ft | 491 kts | 133° |
| 2026-05-03 20:48 | 36.79408 | -121.40831 | 31932 ft | 493 kts | 134° |
| 2026-05-03 20:48 | 36.77210 | -121.37514 | 32247 ft | 496 kts | 134° |
| 2026-05-03 20:49 | 36.75007 | -121.34194 | 32477 ft | 500 kts | 134° |
| 2026-05-03 20:49 | 36.72780 | -121.30840 | 32699 ft | 503 kts | 135° |
| 2026-05-03 20:49 | 36.70560 | -121.27506 | 32790 ft | 510 kts | 135° |
| 2026-05-03 20:49 | 36.68309 | -121.24130 | 32947 ft | 515 kts | 135° |
| 2026-05-03 20:50 | 36.66015 | -121.20687 | 33286 ft | 515 kts | 135° |
| 2026-05-03 20:50 | 36.63719 | -121.17240 | 33552 ft | 516 kts | 135° |
| 2026-05-03 20:50 | 36.61417 | -121.13790 | 33707 ft | 519 kts | 135° |
| 2026-05-03 20:50 | 36.59096 | -121.10320 | 33848 ft | 523 kts | 136° |
| 2026-05-03 20:51 | 36.56781 | -121.06860 | 33934 ft | 527 kts | 137° |
| 2026-05-03 20:51 | 36.52099 | -120.99873 | 34077 ft | 535 kts | 137° |
| 2026-05-03 20:51 | 36.49758 | -120.96375 | 34306 ft | 535 kts | 137° |
| 2026-05-03 20:52 | 36.47365 | -120.92807 | 34531 ft | 535 kts | 137° |
| 2026-05-03 20:52 | 36.45010 | -120.89285 | 34680 ft | 537 kts | 137° |
| 2026-05-03 20:52 | 36.42614 | -120.85691 | 34818 ft | 539 kts | 136° |
| 2026-05-03 20:52 | 36.40212 | -120.82085 | 34967 ft | 540 kts | 137° |
| 2026-05-03 20:53 | 36.38623 | -120.79701 | 35054 ft | 541 kts | 136° |
| 2026-05-03 20:53 | 36.35438 | -120.74924 | 35305 ft | 541 kts | 136° |
| 2026-05-03 20:53 | 36.33037 | -120.71327 | 35549 ft | 540 kts | 136° |
| 2026-05-03 20:53 | 36.30642 | -120.67747 | 35789 ft | 538 kts | 136° |
| 2026-05-03 20:54 | 36.29059 | -120.65383 | 35935 ft | 538 kts | 136° |
| 2026-05-03 20:54 | 36.24237 | -120.58204 | 36040 ft | 544 kts | 137° |
| 2026-05-03 20:54 | 36.21809 | -120.54596 | 36217 ft | 544 kts | 137° |
| 2026-05-03 20:55 | 36.19387 | -120.50995 | 36443 ft | 542 kts | 137° |
| 2026-05-03 20:55 | 36.17009 | -120.47461 | 36699 ft | 540 kts | 137° |
| 2026-05-03 20:55 | 36.14588 | -120.43869 | 36911 ft | 539 kts | 137° |
| 2026-05-03 20:55 | 36.12181 | -120.40303 | 37021 ft | 541 kts | 138° |
| 2026-05-03 20:56 | 36.07351 | -120.33168 | 37103 ft | 546 kts | 138° |
| 2026-05-03 20:56 | 36.04913 | -120.29568 | 37299 ft | 545 kts | 137° |
| 2026-05-03 20:56 | 36.02480 | -120.25975 | 37530 ft | 543 kts | 137° |
| 2026-05-03 20:57 | 36.00054 | -120.22396 | 37742 ft | 542 kts | 137° |
| 2026-05-03 20:57 | 35.97645 | -120.18847 | 37886 ft | 541 kts | 138° |
| 2026-05-03 20:57 | 35.92767 | -120.11684 | 37967 ft | 546 kts | 138° |
| 2026-05-03 20:58 | 35.90357 | -120.08146 | 38140 ft | 545 kts | 138° |
| 2026-05-03 20:58 | 35.87915 | -120.04561 | 38380 ft | 543 kts | 138° |
| 2026-05-03 20:58 | 35.85483 | -120.00997 | 38590 ft | 542 kts | 138° |
| 2026-05-03 20:58 | 35.83194 | -119.97494 | 38740 ft | 544 kts | 135° |
| 2026-05-03 20:59 | 35.78612 | -119.90057 | 38776 ft | 550 kts | 135° |
| 2026-05-03 20:59 | 35.74048 | -119.82522 | 38899 ft | 550 kts | 135° |
| 2026-05-03 21:00 | 35.70234 | -119.76259 | 38952 ft | 545 kts | 135° |
| 2026-05-03 21:00 | 35.64922 | -119.67620 | 38939 ft | 542 kts | 136° |
| 2026-05-03 21:01 | 35.60371 | -119.60269 | 38948 ft | 543 kts | 137° |
| 2026-05-03 21:01 | 35.55771 | -119.52853 | 38949 ft | 546 kts | 136° |
| 2026-05-03 21:02 | 35.51179 | -119.45454 | 38896 ft | 547 kts | 137° |
| 2026-05-03 21:02 | 35.46548 | -119.37998 | 38925 ft | 548 kts | 137° |
| 2026-05-03 21:03 | 35.41905 | -119.30545 | 38923 ft | 549 kts | 137° |
| 2026-05-03 21:03 | 35.37272 | -119.23124 | 38920 ft | 549 kts | 137° |
| 2026-05-03 21:04 | 35.32642 | -119.15721 | 38905 ft | 548 kts | 137° |
| 2026-05-03 21:04 | 35.27993 | -119.08304 | 38916 ft | 547 kts | 137° |
| 2026-05-03 21:05 | 35.23369 | -119.00944 | 38924 ft | 546 kts | 137° |
| 2026-05-03 21:05 | 35.18826 | -118.93729 | 38908 ft | 544 kts | 137° |
| 2026-05-03 21:06 | 35.14221 | -118.86430 | 38914 ft | 543 kts | 137° |
| 2026-05-03 21:06 | 35.09623 | -118.79158 | 38941 ft | 543 kts | 137° |
| 2026-05-03 21:07 | 35.04993 | -118.71850 | 38951 ft | 543 kts | 137° |
| 2026-05-03 21:07 | 35.00369 | -118.64567 | 38953 ft | 542 kts | 137° |
| 2026-05-03 21:08 | 34.95780 | -118.57355 | 38933 ft | 543 kts | 137° |
| 2026-05-03 21:08 | 34.91144 | -118.50083 | 38957 ft | 541 kts | 137° |
| 2026-05-03 21:09 | 34.86528 | -118.42862 | 38953 ft | 544 kts | 137° |
| 2026-05-03 21:09 | 34.81859 | -118.35567 | 38960 ft | 546 kts | 137° |
| 2026-05-03 21:10 | 34.77207 | -118.28311 | 38962 ft | 546 kts | 137° |
| 2026-05-03 21:10 | 34.72531 | -118.21031 | 38935 ft | 546 kts | 137° |
| 2026-05-03 21:11 | 34.67842 | -118.13749 | 38958 ft | 544 kts | 137° |
| 2026-05-03 21:11 | 34.65721 | -118.09958 | 38915 ft | 557 kts | 125° |
| 2026-05-03 21:11 | 34.64287 | -118.05514 | 38926 ft | 573 kts | 110° |
| 2026-05-03 21:12 | 34.63648 | -118.00685 | 38928 ft | 585 kts | 95° |
| 2026-05-03 21:12 | 34.63907 | -117.95978 | 38922 ft | 589 kts | 84° |
| 2026-05-03 21:12 | 34.65202 | -117.86168 | 38906 ft | 593 kts | 83° |
| 2026-05-03 21:13 | 34.66446 | -117.76224 | 38873 ft | 595 kts | 84° |
| 2026-05-03 21:13 | 34.67522 | -117.66320 | 38908 ft | 596 kts | 85° |
| 2026-05-03 21:14 | 34.68577 | -117.56317 | 38931 ft | 596 kts | 85° |
| 2026-05-03 21:14 | 34.69672 | -117.46325 | 38962 ft | 596 kts | 82° |
| 2026-05-03 21:15 | 34.71684 | -117.36498 | 38592 ft | 602 kts | 72° |
| 2026-05-03 21:15 | 34.73098 | -117.31778 | 38116 ft | 598 kts | 66° |
| 2026-05-03 21:15 | 34.74847 | -117.27213 | 37630 ft | 589 kts | 62° |
| 2026-05-03 21:16 | 34.76670 | -117.22835 | 37162 ft | 581 kts | 61° |
| 2026-05-03 21:16 | 34.78521 | -117.18469 | 36650 ft | 578 kts | 61° |
| 2026-05-03 21:16 | 34.80360 | -117.14118 | 36200 ft | 577 kts | 61° |
| 2026-05-03 21:16 | 34.82173 | -117.09777 | 35795 ft | 577 kts | 61° |
| 2026-05-03 21:17 | 34.83990 | -117.05371 | 35400 ft | 582 kts | 62° |
| 2026-05-03 21:17 | 34.85191 | -117.02435 | 35141 ft | 586 kts | 62° |
| 2026-05-03 21:17 | 34.87535 | -116.96665 | 34630 ft | 588 kts | 62° |
| 2026-05-03 21:17 | 34.89329 | -116.92232 | 34169 ft | 589 kts | 62° |
| 2026-05-03 21:18 | 34.91153 | -116.87722 | 33661 ft | 591 kts | 62° |
| 2026-05-03 21:18 | 34.92946 | -116.83289 | 33072 ft | 591 kts | 62° |
| 2026-05-03 21:18 | 34.94766 | -116.78790 | 32497 ft | 590 kts | 62° |
| 2026-05-03 21:18 | 34.96584 | -116.74293 | 31947 ft | 589 kts | 62° |
| 2026-05-03 21:19 | 34.98394 | -116.69810 | 31403 ft | 588 kts | 62° |
| 2026-05-03 21:19 | 35.00194 | -116.65344 | 30858 ft | 587 kts | 62° |
| 2026-05-03 21:19 | 35.01998 | -116.60862 | 30327 ft | 586 kts | 62° |
| 2026-05-03 21:19 | 35.03772 | -116.56447 | 29822 ft | 585 kts | 62° |
| 2026-05-03 21:20 | 35.05572 | -116.51964 | 29187 ft | 583 kts | 63° |
| 2026-05-03 21:20 | 35.07347 | -116.47536 | 28580 ft | 576 kts | 63° |
| 2026-05-03 21:20 | 35.09095 | -116.43171 | 27989 ft | 567 kts | 63° |
| 2026-05-03 21:20 | 35.10989 | -116.39057 | 27425 ft | 556 kts | 52° |
| 2026-05-03 21:21 | 35.13483 | -116.35523 | 26842 ft | 542 kts | 41° |
| 2026-05-03 21:21 | 35.16191 | -116.32372 | 26341 ft | 533 kts | 39° |
| 2026-05-03 21:21 | 35.18853 | -116.29232 | 25818 ft | 528 kts | 42° |
| 2026-05-03 21:21 | 35.21373 | -116.26060 | 25302 ft | 522 kts | 44° |
| 2026-05-03 21:22 | 35.23828 | -116.22830 | 24761 ft | 516 kts | 46° |
| 2026-05-03 21:22 | 35.26211 | -116.19551 | 24249 ft | 510 kts | 47° |
| 2026-05-03 21:22 | 35.28549 | -116.16289 | 23758 ft | 505 kts | 48° |
| 2026-05-03 21:22 | 35.30836 | -116.13118 | 23242 ft | 500 kts | 48° |
| 2026-05-03 21:23 | 35.33137 | -116.09953 | 22674 ft | 495 kts | 48° |
| 2026-05-03 21:23 | 35.35415 | -116.06829 | 22096 ft | 489 kts | 48° |
| 2026-05-03 21:23 | 35.37679 | -116.03723 | 21554 ft | 483 kts | 48° |
| 2026-05-03 21:23 | 35.39905 | -116.00664 | 21099 ft | 476 kts | 48° |
| 2026-05-03 21:24 | 35.42001 | -115.97780 | 20660 ft | 468 kts | 49° |
| 2026-05-03 21:24 | 35.44147 | -115.94823 | 20212 ft | 461 kts | 49° |
| 2026-05-03 21:24 | 35.46260 | -115.91909 | 19787 ft | 453 kts | 49° |
| 2026-05-03 21:24 | 35.48308 | -115.89080 | 19374 ft | 446 kts | 49° |
| 2026-05-03 21:25 | 35.50362 | -115.86241 | 18987 ft | 439 kts | 50° |
| 2026-05-03 21:25 | 35.52380 | -115.83450 | 18586 ft | 433 kts | 50° |
| 2026-05-03 21:25 | 35.54349 | -115.80726 | 18206 ft | 428 kts | 50° |
| 2026-05-03 21:25 | 35.56321 | -115.77994 | 17760 ft | 425 kts | 50° |
| 2026-05-03 21:26 | 35.58272 | -115.75288 | 17323 ft | 420 kts | 50° |
| 2026-05-03 21:26 | 35.60218 | -115.72606 | 16894 ft | 417 kts | 50° |
| 2026-05-03 21:26 | 35.62164 | -115.69976 | 16507 ft | 414 kts | 50° |
| 2026-05-03 21:26 | 35.64085 | -115.67396 | 16134 ft | 411 kts | 50° |
| 2026-05-03 21:27 | 35.66016 | -115.64799 | 15761 ft | 408 kts | 50° |
| 2026-05-03 21:27 | 35.67928 | -115.62219 | 15352 ft | 407 kts | 50° |
| 2026-05-03 21:27 | 35.69834 | -115.59641 | 15017 ft | 405 kts | 50° |
| 2026-05-03 21:27 | 35.71699 | -115.57115 | 14653 ft | 402 kts | 50° |
| 2026-05-03 21:28 | 35.73724 | -115.54753 | 14282 ft | 399 kts | 37° |
| 2026-05-03 21:28 | 35.76120 | -115.53011 | 13971 ft | 397 kts | 29° |
| 2026-05-03 21:28 | 35.78528 | -115.51440 | 13674 ft | 395 kts | 29° |
| 2026-05-03 21:28 | 35.80945 | -115.49838 | 13367 ft | 393 kts | 30° |
| 2026-05-03 21:29 | 35.83333 | -115.48209 | 13009 ft | 392 kts | 31° |
| 2026-05-03 21:29 | 35.85711 | -115.46554 | 12664 ft | 392 kts | 32° |
| 2026-05-03 21:29 | 35.88085 | -115.44887 | 12339 ft | 391 kts | 32° |
| 2026-05-03 21:29 | 35.90405 | -115.43255 | 12014 ft | 386 kts | 31° |
| 2026-05-03 21:30 | 35.92719 | -115.41634 | 11693 ft | 382 kts | 31° |
| 2026-05-03 21:30 | 35.95025 | -115.40025 | 11362 ft | 380 kts | 31° |
| 2026-05-03 21:30 | 35.97314 | -115.38432 | 11058 ft | 376 kts | 32° |
| 2026-05-03 21:30 | 35.99376 | -115.36552 | 10700 ft | 366 kts | 51° |
| 2026-05-03 21:31 | 36.00711 | -115.33941 | 10398 ft | 358 kts | 73° |
| 2026-05-03 21:31 | 36.01331 | -115.31030 | 10099 ft | 345 kts | 89° |
| 2026-05-03 21:31 | 36.01331 | -115.28156 | 9815 ft | 333 kts | 98° |
| 2026-05-03 21:31 | 36.01150 | -115.25369 | 9533 ft | 328 kts | 99° |
| 2026-05-03 21:32 | 36.00950 | -115.22568 | 9246 ft | 325 kts | 99° |
| 2026-05-03 21:32 | 36.00764 | -115.19805 | 8954 ft | 322 kts | 99° |
| 2026-05-03 21:32 | 36.00593 | -115.17047 | 8692 ft | 320 kts | 99° |
| 2026-05-03 21:32 | 36.00433 | -115.14311 | 8454 ft | 318 kts | 98° |
| 2026-05-03 21:33 | 36.00278 | -115.11613 | 8194 ft | 312 kts | 98° |
| 2026-05-03 21:33 | 36.00127 | -115.08972 | 7933 ft | 306 kts | 99° |
| 2026-05-03 21:33 | 35.99977 | -115.06370 | 7673 ft | 299 kts | 99° |
| 2026-05-03 21:33 | 35.99885 | -115.03948 | 7433 ft | 294 kts | 96° |
| 2026-05-03 21:34 | 35.99880 | -115.01356 | 7184 ft | 289 kts | 94° |
| 2026-05-03 21:34 | 35.99823 | -114.99028 | 6914 ft | 280 kts | 100° |
| 2026-05-03 21:34 | 35.99646 | -114.96666 | 6692 ft | 272 kts | 102° |
| 2026-05-03 21:34 | 35.99435 | -114.94369 | 6483 ft | 266 kts | 99° |
| 2026-05-03 21:35 | 35.99760 | -114.92128 | 6239 ft | 273 kts | 66° |
| 2026-05-03 21:35 | 36.01064 | -114.90412 | 6089 ft | 277 kts | 40° |
| 2026-05-03 21:35 | 36.02793 | -114.89354 | 5846 ft | 281 kts | 13° |
| 2026-05-03 21:35 | 36.04719 | -114.89377 | 5540 ft | 278 kts | 343° |
| 2026-05-03 21:36 | 36.06355 | -114.90476 | 5276 ft | 268 kts | 314° |
| 2026-05-03 21:36 | 36.07338 | -114.92339 | 4909 ft | 245 kts | 281° |
| 2026-05-03 21:36 | 36.07449 | -114.94279 | 4622 ft | 220 kts | 259° |
| 2026-05-03 21:36 | 36.07365 | -114.96161 | 4352 ft | 221 kts | 263° |
| 2026-05-03 21:37 | 36.07360 | -114.98056 | 4092 ft | 217 kts | 264° |
| 2026-05-03 21:37 | 36.07366 | -114.99814 | 3954 ft | 194 kts | 263° |
| 2026-05-03 21:37 | 36.07367 | -115.01409 | 3842 ft | 179 kts | 262° |
| 2026-05-03 21:37 | 36.07366 | -115.02893 | 3608 ft | 167 kts | 262° |
| 2026-05-03 21:38 | 36.07364 | -115.04270 | 3434 ft | 155 kts | 262° |
| 2026-05-03 21:38 | 36.07361 | -115.05598 | 3248 ft | 156 kts | 263° |
| 2026-05-03 21:38 | 36.07359 | -115.06959 | 3012 ft | 158 kts | 265° |
| 2026-05-03 21:38 | 36.07362 | -115.08261 | 2822 ft | 150 kts | 266° |
| 2026-05-03 21:39 | 36.07365 | -115.09593 | 2555 ft | 158 kts | 266° |
| 2026-05-03 21:39 | 36.07370 | -115.10897 | 2383 ft | 149 kts | 263° |
| 2026-05-03 21:39 | 36.07370 | -115.12176 | 2151 ft | 155 kts | 264° |
| 2026-05-03 21:39 | 36.07371 | -115.13480 | 2078 ft | 143 kts | 265° |
| 2026-05-03 21:40 | 36.07366 | -115.14420 | 2095 ft | 61 kts | 270° |
| 2026-05-03 21:40 | 36.07366 | -115.14930 | 2101 ft | 55 kts | 270° |
| 2026-05-03 21:40 | 36.07382 | -115.15261 | 2107 ft | 28 kts | 283° |
| 2026-05-03 21:40 | 36.07441 | -115.15446 | 2110 ft | 17 kts | 300° |
| 2026-05-03 21:41 | 36.07481 | -115.15539 | 2111 ft | 10 kts | 296° |
| 2026-05-03 21:41 | 36.07498 | -115.15588 | 2112 ft | 8 kts | 289° |
| 2026-05-03 21:41 | 36.07502 | -115.15634 | 2113 ft | 3 kts | 270° |
| 2026-05-03 21:41 | 36.07502 | -115.15679 | 2115 ft | 8 kts | 270° |
| 2026-05-03 21:42 | 36.07502 | -115.15793 | 2119 ft | 20 kts | 269° |
| 2026-05-03 21:42 | 36.07502 | -115.15991 | 2127 ft | 22 kts | 270° |
| 2026-05-03 21:42 | 36.07501 | -115.16150 | 2135 ft | 15 kts | 270° |
| 2026-05-03 21:42 | 36.07501 | -115.16255 | 2140 ft | 11 kts | 270° |
| 2026-05-03 21:43 | 36.07501 | -115.16391 | 2148 ft | 19 kts | 270° |
| 2026-05-03 21:43 | 36.07527 | -115.16451 | 2151 ft | 0 kts | 332° |
| 2026-05-03 21:44 | 36.07535 | -115.16452 | 2151 ft | 7 kts | 349° |
| 2026-05-03 21:44 | 36.07647 | -115.16401 | 2146 ft | 21 kts | 25° |
| 2026-05-03 21:44 | 36.07771 | -115.16346 | 2145 ft | 18 kts | 349° |
| 2026-05-03 21:44 | 36.07804 | -115.16425 | 2150 ft | 9 kts | 270° |
| 2026-05-03 21:45 | 36.07803 | -115.16516 | 2151 ft | 13 kts | 270° |
| 2026-05-03 21:45 | 36.07803 | -115.16672 | 2156 ft | 26 kts | 269° |
| 2026-05-03 21:45 | 36.07803 | -115.16868 | 2166 ft | 19 kts | 270° |
| 2026-05-03 21:45 | 36.07802 | -115.16984 | 2168 ft | 7 kts | 269° |
| 2026-05-03 21:46 | 36.07803 | -115.17035 | 2169 ft | 5 kts | 275° |
| 2026-05-03 21:46 | 36.07892 | -115.17073 | 2171 ft | 26 kts | 21° |
| 2026-05-03 21:46 | 36.08044 | -115.16987 | 2164 ft | 23 kts | 25° |
| 2026-05-03 21:46 | 36.08188 | -115.16905 | 2161 ft | 23 kts | 25° |
| 2026-05-03 21:47 | 36.08339 | -115.16818 | 2157 ft | 25 kts | 25° |
| 2026-05-03 21:47 | 36.08487 | -115.16732 | 2156 ft | 19 kts | 25° |
| 2026-05-03 21:47 | 36.08560 | -115.16722 | 2157 ft | 8 kts | 320° |
| 2026-05-03 21:47 | 36.08571 | -115.16755 | 2156 ft | 2 kts | 275° |
| 2026-05-03 21:48 | 36.08561 | -115.16804 | 2158 ft | 11 kts | 252° |
| 2026-05-03 21:48 | 36.08551 | -115.16855 | 2162 ft | 0 kts | 258° |
| 2026-05-03 21:48 | 36.08553 | -115.16860 | 2163 ft | 1 kts | 283° |
| 2026-05-03 21:48 | 36.08558 | -115.16864 | 2165 ft | 0 kts | 324° |
| 2026-05-03 21:49 | 36.08562 | -115.16864 | 2167 ft | 1 kts | 351° |
| 2026-05-03 21:49 | 36.08563 | -115.16863 | 2159 ft | 0 kts | 358° |
| 2026-05-03 21:49 | 36.08565 | -115.16861 | 2159 ft | 1 kts | 23° |
| 2026-05-03 21:49 | 36.08564 | -115.16840 | 2158 ft | 4 kts | 105° |
| 2026-05-03 21:50 | 36.08558 | -115.16815 | 2162 ft | 0 kts | 101° |